createdAt,value
2022-07-28T00:04:48.423Z,99004.41
2022-07-28T00:09:50.541Z,99005.75
2022-07-28T00:14:52.631Z,99009.00
2022-07-28T00:19:54.771Z,99014.41
2022-07-28T00:24:56.964Z,99014.13
2022-07-28T00:29:59.986Z,99019.81
2022-07-28T00:35:02.406Z,99003.56
2022-07-28T00:40:06.955Z,99006.00
2022-07-28T00:45:09.624Z,99005.72
2022-07-28T00:50:12.348Z,98996.78
2022-07-28T00:55:14.581Z,98997.31
2022-07-28T01:00:16.776Z,99006.50
2022-07-28T01:05:43.343Z,99011.38
2022-07-28T01:10:47.147Z,98994.91
2022-07-28T01:15:59.959Z,98999.22
2022-07-28T01:21:12.037Z,98995.19
2022-07-28T01:26:22.262Z,98997.31
2022-07-28T01:31:26.760Z,98994.63
2022-07-28T01:36:33.490Z,99003.56
2022-07-28T01:41:38.806Z,98996.50
2022-07-28T01:46:43.877Z,98984.59
2022-07-28T01:51:47.520Z,98998.16
2022-07-28T01:56:52.994Z,98985.69
2022-07-28T02:01:57.333Z,98988.69
2022-07-28T02:07:00.677Z,98966.22
2022-07-28T02:12:04.650Z,98983.03
2022-07-28T02:17:15.086Z,98989.00
2022-07-28T02:22:18.112Z,98972.22
2022-07-28T02:27:25.111Z,98979.25
2022-07-28T02:32:49.966Z,98989.19
2022-07-28T02:37:59.248Z,98981.16
2022-07-28T02:43:02.837Z,98970.75
2022-07-28T02:48:11.000Z,98993.91
2022-07-28T02:53:16.327Z,98995.22
2022-07-28T02:58:21.682Z,98982.88
2022-07-28T03:03:25.230Z,98999.31
2022-07-28T03:08:27.398Z,98995.13
2022-07-28T03:13:29.415Z,99000.66
2022-07-28T03:18:31.666Z,99004.41
2022-07-28T03:23:39.764Z,98987.03
2022-07-28T03:28:42.969Z,99000.56
2022-07-28T03:33:45.263Z,98995.69
2022-07-28T03:38:57.768Z,98998.91
2022-07-28T03:44:00.929Z,98999.91
2022-07-28T03:49:08.113Z,99002.25
2022-07-28T03:54:10.393Z,99010.97
2022-07-28T03:59:12.625Z,99004.56
2022-07-28T04:04:15.279Z,99005.25
2022-07-28T04:09:18.047Z,99001.81
2022-07-28T04:14:20.425Z,99001.19
2022-07-28T04:19:22.783Z,99010.53
2022-07-28T04:24:25.913Z,99004.41
2022-07-28T04:29:28.010Z,98997.13
2022-07-28T04:34:30.031Z,99008.38
2022-07-28T04:39:32.085Z,99010.25
2022-07-28T04:44:35.807Z,99014.59
2022-07-28T04:49:38.091Z,99009.22
2022-07-28T04:54:40.272Z,99011.88
2022-07-28T04:59:42.873Z,99014.19
2022-07-28T05:04:45.860Z,99007.97
2022-07-28T05:09:48.122Z,99009.72
2022-07-28T05:14:50.217Z,99012.16
2022-07-28T05:19:52.563Z,99006.16
2022-07-28T05:24:54.623Z,99010.66
2022-07-28T05:29:56.688Z,99017.69
2022-07-28T05:34:59.550Z,98998.38
2022-07-28T05:40:10.420Z,99005.22
2022-07-28T05:45:16.252Z,99002.19
2022-07-28T05:50:21.233Z,99011.78
2022-07-28T05:55:23.302Z,99009.81
2022-07-28T06:00:25.446Z,99008.25
2022-07-28T06:05:29.038Z,99009.69
2022-07-28T06:10:51.792Z,99010.06
2022-07-28T06:15:53.872Z,99012.22
2022-07-28T06:20:57.036Z,99004.88
2022-07-28T06:25:59.080Z,99012.03
2022-07-28T06:31:01.283Z,99005.31
2022-07-28T06:36:03.589Z,99005.81
2022-07-28T06:41:05.765Z,99016.19
2022-07-28T06:46:07.930Z,99003.97
2022-07-28T06:51:10.012Z,99011.00
2022-07-28T06:56:13.879Z,99001.63
2022-07-28T07:01:18.010Z,98990.28
2022-07-28T07:06:21.154Z,98996.69
2022-07-28T07:11:23.297Z,99007.75
2022-07-28T07:16:25.458Z,98997.78
2022-07-28T07:21:27.609Z,98995.81
2022-07-28T07:26:29.703Z,98984.47
2022-07-28T07:31:38.962Z,99004.28
2022-07-28T07:36:40.994Z,99016.88
2022-07-28T07:41:43.034Z,98996.56
2022-07-28T07:46:45.184Z,98993.78
2022-07-28T07:51:48.174Z,98987.25
2022-07-28T07:56:50.945Z,98989.50
2022-07-28T08:01:56.255Z,98998.84
2022-07-28T08:06:58.370Z,98983.22
2022-07-28T08:12:00.794Z,98978.25
2022-07-28T08:17:02.869Z,98956.44
2022-07-28T08:22:04.877Z,98949.34
2022-07-28T08:27:07.187Z,98943.56
2022-07-28T08:32:09.437Z,98944.66
2022-07-28T08:37:11.403Z,98949.38
2022-07-28T08:42:20.676Z,98946.69
2022-07-28T08:47:23.379Z,98949.00
2022-07-28T08:52:29.400Z,98948.94
2022-07-28T08:57:43.218Z,98944.34
2022-07-28T09:02:52.169Z,98946.94
2022-07-28T09:07:57.738Z,98960.78
2022-07-28T09:12:59.737Z,98961.75
2022-07-28T09:18:02.635Z,98943.63
2022-07-28T09:23:43.532Z,98989.44
2022-07-28T09:28:29.097Z,98976.78
2022-07-28T09:33:43.249Z,98937.13
2022-07-28T09:38:47.184Z,98938.06
2022-07-28T09:43:54.900Z,98945.69
2022-07-28T09:49:01.345Z,98925.25
2022-07-28T09:54:12.926Z,98916.72
2022-07-28T09:59:16.196Z,98925.91
2022-07-28T10:04:30.133Z,98921.94
2022-07-28T10:09:32.972Z,98921.53
2022-07-28T10:14:35.024Z,98911.03
2022-07-28T10:19:37.544Z,98915.09
2022-07-28T10:24:40.212Z,98916.38
2022-07-28T10:29:44.553Z,98935.06
2022-07-28T10:34:50.966Z,98917.16
2022-07-28T10:40:09.746Z,98937.69
2022-07-28T10:45:13.036Z,98938.63
2022-07-28T10:50:16.421Z,98953.16
2022-07-28T10:55:48.525Z,98950.94
2022-07-28T11:00:56.591Z,98944.47
2022-07-28T11:06:36.963Z,98949.06
2022-07-28T11:11:59.877Z,98969.66
2022-07-28T11:17:01.933Z,98972.34
2022-07-28T11:22:24.561Z,98956.47
2022-07-28T11:27:45.412Z,98969.19
2022-07-28T11:32:50.654Z,98969.25
2022-07-28T11:38:01.721Z,98967.91
2022-07-28T11:43:35.615Z,98961.03
2022-07-28T11:48:41.261Z,98988.06
2022-07-28T11:53:50.282Z,98960.19
2022-07-28T11:59:01.113Z,98964.56
2022-07-28T12:04:14.871Z,98950.69
2022-07-28T12:09:21.949Z,98944.81
2022-07-28T12:14:30.076Z,98911.00
2022-07-28T12:19:33.063Z,98911.00
2022-07-28T12:24:44.829Z,98912.94
2022-07-28T12:30:02.408Z,98934.34
2022-07-28T12:35:05.828Z,98943.19
2022-07-28T12:40:10.637Z,98944.78
2022-07-28T12:45:13.894Z,98924.28
2022-07-28T12:50:21.074Z,98900.06
2022-07-28T12:55:26.986Z,98885.25
2022-07-28T13:00:32.045Z,98870.47
2022-07-28T13:05:55.762Z,98863.53
2022-07-28T13:10:59.149Z,98890.97
2022-07-28T13:16:15.638Z,98929.41
2022-07-28T13:21:58.595Z,98967.69
2022-07-28T13:27:02.699Z,99026.84
2022-07-28T13:32:05.096Z,99083.00
2022-07-28T13:37:07.345Z,99061.63
2022-07-28T13:42:10.390Z,99080.63
2022-07-28T13:47:12.728Z,99081.09
2022-07-28T13:52:33.240Z,99086.50
2022-07-28T13:57:37.392Z,99095.56
2022-07-28T14:02:44.262Z,99090.00
2022-07-28T14:07:48.301Z,99082.09
2022-07-28T14:12:51.144Z,99085.88
2022-07-28T14:17:53.444Z,99098.97
2022-07-28T14:22:55.634Z,99090.63
2022-07-28T14:27:57.796Z,99088.78
2022-07-28T14:32:59.914Z,99097.97
2022-07-28T14:38:49.872Z,99108.25
2022-07-28T14:43:24.012Z,99098.41
2022-07-28T14:48:26.264Z,99087.88
2022-07-28T14:53:28.403Z,99066.47
2022-07-28T14:58:31.304Z,99066.88
2022-07-28T15:03:36.590Z,99070.22
2022-07-28T15:08:39.107Z,99072.13
2022-07-28T15:13:41.086Z,99081.91
2022-07-28T15:18:44.777Z,99100.47
2022-07-28T15:23:46.887Z,99089.06
2022-07-28T15:28:49.004Z,99085.88
2022-07-28T15:33:57.764Z,99090.59
2022-07-28T15:39:00.186Z,99075.66
2022-07-28T15:44:02.244Z,99072.84
2022-07-28T15:49:06.095Z,99075.56
2022-07-28T15:54:08.602Z,99091.06
2022-07-28T15:59:10.674Z,99102.84
2022-07-28T16:04:13.226Z,99105.13
2022-07-28T16:09:15.592Z,99121.50
2022-07-28T16:14:18.160Z,99130.06
2022-07-28T16:19:47.382Z,99120.50
2022-07-28T16:24:43.122Z,99123.44
2022-07-28T16:29:45.222Z,99127.03
2022-07-28T16:34:48.227Z,99124.59
2022-07-28T16:39:50.297Z,99123.81
2022-07-28T16:44:52.439Z,99125.25
2022-07-28T16:49:54.519Z,99136.97
2022-07-28T16:54:56.741Z,99124.06
2022-07-28T16:59:58.936Z,99144.19
2022-07-28T17:05:01.207Z,99139.16
2022-07-28T17:10:05.034Z,99138.97
2022-07-28T17:15:07.806Z,99140.38
2022-07-28T17:20:25.574Z,99143.66
2022-07-28T17:25:52.386Z,99143.16
2022-07-28T17:30:49.936Z,99154.56
2022-07-28T17:35:52.099Z,99166.84
2022-07-28T17:40:55.409Z,99170.94
2022-07-28T17:45:57.779Z,99159.09
2022-07-28T17:51:03.409Z,99173.25
2022-07-28T17:56:08.624Z,99188.97
2022-07-28T18:01:12.571Z,99194.69
2022-07-28T18:06:14.946Z,99178.44
2022-07-28T18:11:17.022Z,99202.28
2022-07-28T18:16:19.360Z,99203.09
2022-07-28T18:21:21.639Z,99218.25
2022-07-28T18:26:23.905Z,99225.84
2022-07-28T18:31:26.257Z,99226.59
2022-07-28T18:36:28.414Z,99226.34
2022-07-28T18:41:34.613Z,99228.47
2022-07-28T18:46:48.835Z,99214.09
2022-07-28T18:51:51.903Z,99232.22
2022-07-28T18:56:54.030Z,99220.28
2022-07-28T19:01:57.157Z,99212.44
2022-07-28T19:06:59.389Z,99218.09
2022-07-28T19:12:01.618Z,99222.09
2022-07-28T19:17:05.692Z,99223.34
2022-07-28T19:22:09.781Z,99223.88
2022-07-28T19:27:11.985Z,99229.22
2022-07-28T19:32:14.073Z,99238.09
2022-07-28T19:37:16.954Z,99239.69
2022-07-28T19:42:19.577Z,99231.53
2022-07-28T19:47:23.425Z,99244.16
2022-07-28T19:52:25.586Z,99242.00
2022-07-28T19:57:29.353Z,99253.81
2022-07-28T20:02:31.457Z,99269.50
2022-07-28T20:07:33.653Z,99259.38
2022-07-28T20:12:36.798Z,99259.06
2022-07-28T20:17:40.048Z,99258.25
2022-07-28T20:22:42.324Z,99264.44
2022-07-28T20:27:44.490Z,99264.88
2022-07-28T20:32:46.803Z,99276.16
2022-07-28T20:37:48.853Z,99269.59
2022-07-28T20:42:53.326Z,99287.09
2022-07-28T20:47:55.580Z,99283.13
2022-07-28T20:52:59.870Z,99283.53
2022-07-28T20:58:13.153Z,99289.19
2022-07-28T21:03:16.482Z,99285.34
2022-07-28T21:08:18.665Z,99294.44
2022-07-28T21:13:21.422Z,99301.91
2022-07-28T21:18:23.511Z,99313.69
2022-07-28T21:23:25.554Z,99317.19
2022-07-28T21:28:46.411Z,99322.84
2022-07-28T21:33:48.417Z,99306.41
2022-07-28T21:38:50.649Z,99317.13
2022-07-28T21:43:59.685Z,99326.03
2022-07-28T21:49:06.426Z,99323.03
2022-07-28T21:54:08.742Z,99323.38
2022-07-28T21:59:10.909Z,99331.34
2022-07-28T22:04:13.292Z,99327.66
2022-07-28T22:09:15.792Z,99335.19
2022-07-28T22:14:18.573Z,99327.28
2022-07-28T22:19:21.078Z,99335.03
2022-07-28T22:24:23.736Z,99338.81
2022-07-28T22:29:25.845Z,99329.25
2022-07-28T22:34:28.165Z,99348.63
2022-07-28T22:39:30.295Z,99346.28
2022-07-28T22:44:33.315Z,99361.06
2022-07-28T22:49:35.580Z,99351.44
2022-07-28T22:54:39.116Z,99365.72
2022-07-28T22:59:42.203Z,99356.25
2022-07-28T23:04:51.810Z,99365.72
2022-07-28T23:09:58.532Z,99357.97
2022-07-28T23:15:00.656Z,99360.16
2022-07-28T23:20:03.842Z,99342.19
2022-07-28T23:25:06.602Z,99369.38
2022-07-28T23:30:08.977Z,99372.63
2022-07-28T23:35:11.119Z,99378.13
2022-07-28T23:40:13.694Z,99388.91
2022-07-28T23:45:15.824Z,99397.22
2022-07-28T23:50:18.014Z,99392.78
2022-07-28T23:55:22.308Z,99401.47
